createdAt,value
2023-02-24T00:01:24.999Z,96543.09
2023-02-24T00:03:53.381Z,96539.81
2023-02-24T00:06:21.025Z,96536.38
2023-02-24T00:08:48.607Z,96539.34
2023-02-24T00:11:19.366Z,96528.97
2023-02-24T00:13:47.435Z,96517.97
2023-02-24T00:16:17.905Z,96526.03
2023-02-24T00:18:46.459Z,96529.78
2023-02-24T00:21:16.327Z,96524.88
2023-02-24T00:23:46.418Z,96518.47
2023-02-24T00:26:16.835Z,96512.72
2023-02-24T00:28:45.663Z,96511.75
2023-02-24T00:31:15.381Z,96513.72
2023-02-24T00:33:43.991Z,96514.06
2023-02-24T00:36:13.324Z,96509.78
2023-02-24T00:38:44.955Z,96513.06
2023-02-24T00:41:15.410Z,96504.66
2023-02-24T00:43:47.067Z,96507.59
2023-02-24T00:46:17.137Z,96507.44
2023-02-24T00:48:46.951Z,96511.69
2023-02-24T00:51:16.579Z,96495.72
2023-02-24T00:53:45.180Z,96490.47
2023-02-24T00:56:13.259Z,96479.66
2023-02-24T00:58:41.469Z,96479.47
2023-02-24T01:01:15.701Z,96472.22
2023-02-24T01:03:43.744Z,96473.22
2023-02-24T01:06:12.262Z,96478.03
2023-02-24T01:08:40.184Z,96474.28
2023-02-24T01:11:25.600Z,96467.69
2023-02-24T01:13:53.201Z,96457.97
2023-02-24T01:16:22.112Z,96458.63
2023-02-24T01:18:50.212Z,96451.38
2023-02-24T01:21:19.821Z,96444.50
2023-02-24T01:23:48.718Z,96444.84
2023-02-24T01:26:16.356Z,96443.69
2023-02-24T01:28:48.047Z,96445.19
2023-02-24T01:31:18.470Z,96442.09
2023-02-24T01:33:49.406Z,96442.16
2023-02-24T01:36:18.722Z,96447.22
2023-02-24T01:38:47.138Z,96427.97
2023-02-24T01:41:16.891Z,96429.97
2023-02-24T01:43:58.737Z,96423.28
2023-02-24T01:46:26.825Z,96428.56
2023-02-24T01:48:59.484Z,96428.22
2023-02-24T01:51:28.290Z,96432.69
2023-02-24T01:53:55.965Z,96422.34
2023-02-24T01:56:23.498Z,96428.75
2023-02-24T01:58:51.148Z,96428.59
2023-02-24T02:01:20.425Z,96425.66
2023-02-24T02:03:48.995Z,96434.38
2023-02-24T02:06:18.673Z,96430.13
2023-02-24T02:08:46.393Z,96418.16
2023-02-24T02:11:20.412Z,96409.75
2023-02-24T02:13:50.693Z,96402.81
2023-02-24T02:16:29.672Z,96396.91
2023-02-24T02:19:08.346Z,96403.81
2023-02-24T02:22:08.735Z,96404.78
2023-02-24T02:24:42.883Z,96404.31
2023-02-24T02:27:24.664Z,96406.44
2023-02-24T02:30:19.584Z,96401.41
2023-02-24T02:33:27.380Z,96405.19
2023-02-24T02:36:01.106Z,96408.44
2023-02-24T02:38:34.324Z,96415.00
2023-02-24T02:41:08.353Z,96405.13
2023-02-24T02:43:40.080Z,96402.63
2023-02-24T02:46:10.370Z,96393.00
2023-02-24T02:48:41.330Z,96391.66
2023-02-24T02:51:11.622Z,96383.78
2023-02-24T02:53:42.399Z,96386.06
2023-02-24T02:56:13.162Z,96376.00
2023-02-24T02:58:43.436Z,96392.81
2023-02-24T03:01:12.066Z,96387.56
2023-02-24T03:03:41.459Z,96382.94
2023-02-24T03:06:14.649Z,96378.97
2023-02-24T03:08:45.178Z,96378.00
2023-02-24T03:11:16.551Z,96377.66
2023-02-24T03:13:49.526Z,96368.47
2023-02-24T03:16:18.356Z,96368.72
2023-02-24T03:18:52.052Z,96369.78
2023-02-24T03:21:28.767Z,96352.50
2023-02-24T03:23:56.523Z,96368.72
2023-02-24T03:26:28.191Z,96364.59
2023-02-24T03:29:00.283Z,96362.63
2023-02-24T03:31:30.770Z,96358.06
2023-02-24T03:34:03.625Z,96352.31
2023-02-24T03:36:33.166Z,96349.56
2023-02-24T03:39:02.243Z,96353.97
2023-02-24T03:41:32.346Z,96367.59
2023-02-24T03:44:00.746Z,96358.75
2023-02-24T03:46:29.896Z,96353.81
2023-02-24T03:49:01.717Z,96355.31
2023-02-24T03:51:29.380Z,96355.97
2023-02-24T03:54:05.645Z,96357.91
2023-02-24T03:56:45.825Z,96343.19
2023-02-24T03:59:23.679Z,96345.31
2023-02-24T04:01:57.908Z,96346.31
2023-02-24T04:04:31.466Z,96363.56
2023-02-24T04:07:01.753Z,96363.22
2023-02-24T04:09:36.115Z,96343.22
2023-02-24T04:12:09.856Z,96347.59
2023-02-24T04:14:47.415Z,96344.63
2023-02-24T04:17:19.512Z,96344.31
2023-02-24T04:19:49.877Z,96335.16
2023-02-24T04:22:24.622Z,96328.75
2023-02-24T04:24:56.394Z,96326.16
2023-02-24T04:27:25.237Z,96322.38
2023-02-24T04:29:54.546Z,96329.59
2023-02-24T04:32:25.285Z,96326.81
2023-02-24T04:34:53.485Z,96320.47
2023-02-24T04:37:23.092Z,96338.47
2023-02-24T04:39:51.774Z,96336.13
2023-02-24T04:42:22.310Z,96331.53
2023-02-24T04:44:49.945Z,96328.38
2023-02-24T04:47:17.669Z,96323.97
2023-02-24T04:49:45.206Z,96327.56
2023-02-24T04:52:15.330Z,96318.69
2023-02-24T04:54:44.496Z,96320.34
2023-02-24T04:57:12.772Z,96314.63
2023-02-24T04:59:41.630Z,96324.59
2023-02-24T05:02:09.201Z,96315.09
2023-02-24T05:04:38.785Z,96312.88
2023-02-24T05:07:06.521Z,96302.50
2023-02-24T05:09:34.038Z,96291.53
2023-02-24T05:12:01.616Z,96294.53
2023-02-24T05:14:29.186Z,96284.97
2023-02-24T05:17:00.307Z,96284.66
2023-02-24T05:19:45.758Z,96282.28
2023-02-24T05:22:14.390Z,96284.75
2023-02-24T05:24:42.190Z,96277.22
2023-02-24T05:27:09.964Z,96276.88
2023-02-24T05:29:40.452Z,96271.84
2023-02-24T05:32:09.509Z,96261.34
2023-02-24T05:34:39.032Z,96244.44
2023-02-24T05:37:10.492Z,96245.09
2023-02-24T05:39:38.302Z,96248.16
2023-02-24T05:42:07.136Z,96256.03
2023-02-24T05:44:36.237Z,96246.72
2023-02-24T05:47:05.418Z,96245.88
2023-02-24T05:49:35.808Z,96249.19
2023-02-24T05:52:07.640Z,96242.31
2023-02-24T05:54:36.733Z,96250.34
2023-02-24T05:57:06.284Z,96247.41
2023-02-24T05:59:34.722Z,96237.06
2023-02-24T06:02:07.294Z,96234.13
2023-02-24T06:04:45.626Z,96239.84
2023-02-24T06:07:18.982Z,96249.69
2023-02-24T06:09:50.234Z,96241.38
2023-02-24T06:12:18.766Z,96252.97
2023-02-24T06:14:46.402Z,96252.41
2023-02-24T06:17:16.920Z,96235.69
2023-02-24T06:19:46.001Z,96246.31
2023-02-24T06:22:14.803Z,96242.91
2023-02-24T06:24:44.321Z,96242.56
2023-02-24T06:27:17.659Z,96248.16
2023-02-24T06:29:46.026Z,96250.00
2023-02-24T06:32:13.692Z,96243.59
2023-02-24T06:34:42.258Z,96248.50
2023-02-24T06:37:13.697Z,96243.59
2023-02-24T06:39:41.519Z,96238.31
2023-02-24T06:42:10.457Z,96243.22
2023-02-24T06:44:39.632Z,96241.56
2023-02-24T06:47:08.851Z,96240.38
2023-02-24T06:49:36.744Z,96236.41
2023-02-24T06:52:04.467Z,96234.34
2023-02-24T06:54:35.863Z,96235.75
2023-02-24T06:57:04.305Z,96233.28
2023-02-24T06:59:32.242Z,96229.13
2023-02-24T07:02:02.002Z,96222.00
2023-02-24T07:04:29.917Z,96233.69
2023-02-24T07:07:02.847Z,96222.97
2023-02-24T07:09:31.935Z,96225.78
2023-02-24T07:12:02.951Z,96226.38
2023-02-24T07:14:31.685Z,96226.16
2023-02-24T07:16:59.842Z,96224.41
2023-02-24T07:19:29.573Z,96223.41
2023-02-24T07:22:00.163Z,96223.34
2023-02-24T07:24:35.831Z,96221.50
2023-02-24T07:27:06.858Z,96221.06
2023-02-24T07:29:35.637Z,96211.03
2023-02-24T07:32:05.738Z,96199.97
2023-02-24T07:34:34.120Z,96213.66
2023-02-24T07:37:08.100Z,96213.41
2023-02-24T07:39:37.468Z,96194.03
2023-02-24T07:42:07.609Z,96205.53
2023-02-24T07:44:35.164Z,96201.72
2023-02-24T07:47:08.014Z,96214.59
2023-02-24T07:49:36.213Z,96212.78
2023-02-24T07:52:03.910Z,96210.97
2023-02-24T07:54:31.504Z,96204.28
2023-02-24T07:57:00.120Z,96211.50
2023-02-24T07:59:30.427Z,96206.56
2023-02-24T08:01:58.364Z,96200.50
2023-02-24T08:04:27.827Z,96195.41
2023-02-24T08:07:02.690Z,96198.38
2023-02-24T08:09:50.120Z,96194.31
2023-02-24T08:12:21.198Z,96186.41
2023-02-24T08:14:51.715Z,96173.97
2023-02-24T08:17:20.930Z,96173.97
2023-02-24T08:19:49.584Z,96176.81
2023-02-24T08:22:20.899Z,96172.88
2023-02-24T08:24:50.177Z,96170.31
2023-02-24T08:27:20.202Z,96163.50
2023-02-24T08:30:02.789Z,96165.75
2023-02-24T08:32:34.577Z,96160.41
2023-02-24T08:35:04.702Z,96160.88
2023-02-24T08:37:39.528Z,96149.19
2023-02-24T08:40:29.396Z,96158.63
2023-02-24T08:42:58.573Z,96151.09
2023-02-24T08:45:29.233Z,96152.56
2023-02-24T08:48:00.509Z,96146.13
2023-02-24T08:50:31.350Z,96137.97
2023-02-24T08:53:01.143Z,96143.97
2023-02-24T08:55:32.965Z,96142.66
2023-02-24T08:58:02.489Z,96126.53
2023-02-24T09:00:49.013Z,96137.03
2023-02-24T09:03:28.017Z,96138.63
2023-02-24T09:06:00.371Z,96124.28
2023-02-24T09:08:32.653Z,96121.13
2023-02-24T09:11:07.810Z,96125.16
2023-02-24T09:13:36.952Z,96120.63
2023-02-24T09:16:06.608Z,96102.00
2023-02-24T09:18:38.403Z,96108.00
2023-02-24T09:21:28.264Z,96096.78
2023-02-24T09:23:56.156Z,96090.28
2023-02-24T09:26:23.888Z,96083.00
2023-02-24T09:28:54.965Z,96074.00
2023-02-24T09:31:24.983Z,96083.03
2023-02-24T09:33:52.816Z,96073.28
2023-02-24T09:36:27.930Z,96079.16
2023-02-24T09:39:14.661Z,96079.50
2023-02-24T09:41:56.518Z,96070.25
2023-02-24T09:44:34.267Z,96070.97
2023-02-24T09:47:10.932Z,96076.03
2023-02-24T09:49:49.293Z,96052.66
2023-02-24T09:52:18.619Z,96058.19
2023-02-24T09:55:14.358Z,96056.72
2023-02-24T09:58:12.859Z,96043.03
2023-02-24T10:00:44.175Z,96050.44
2023-02-24T10:03:20.460Z,96048.81
2023-02-24T10:05:58.834Z,96046.91
2023-02-24T10:08:32.325Z,96041.00
2023-02-24T10:11:07.918Z,96034.91
2023-02-24T10:13:38.672Z,96018.94
2023-02-24T10:16:12.054Z,96025.00
2023-02-24T10:18:44.789Z,96027.84
2023-02-24T10:21:20.798Z,96028.63
2023-02-24T10:23:59.519Z,96014.13
2023-02-24T10:26:51.248Z,95997.25
2023-02-24T10:29:34.640Z,95997.44
2023-02-24T10:32:18.693Z,95998.06
2023-02-24T10:34:49.272Z,95994.63
2023-02-24T10:37:28.280Z,95987.09
2023-02-24T10:39:58.656Z,95973.66
2023-02-24T10:42:31.534Z,95977.75
2023-02-24T10:45:17.161Z,95971.25
2023-02-24T10:47:56.549Z,95955.38
2023-02-24T10:50:29.809Z,95968.59
2023-02-24T10:53:26.601Z,95958.66
2023-02-24T10:56:14.840Z,95944.22
2023-02-24T10:58:49.703Z,95962.09
2023-02-24T11:01:21.822Z,95957.63
2023-02-24T11:04:01.974Z,95949.09
2023-02-24T11:06:55.467Z,95946.28
2023-02-24T11:09:35.191Z,95932.88
2023-02-24T11:12:26.265Z,95936.28
2023-02-24T11:15:14.104Z,95931.53
2023-02-24T11:17:47.997Z,95917.34
2023-02-24T11:20:24.949Z,95920.78
2023-02-24T11:22:55.893Z,95912.69
2023-02-24T11:25:26.524Z,95911.63
2023-02-24T11:27:56.091Z,95906.94
2023-02-24T11:30:30.844Z,95902.25
2023-02-24T11:33:13.221Z,95893.13
2023-02-24T11:35:48.065Z,95888.03
2023-02-24T11:38:28.678Z,95878.75
2023-02-24T11:41:05.220Z,95872.09
2023-02-24T11:43:34.764Z,95869.66
2023-02-24T11:46:07.228Z,95865.19
2023-02-24T11:48:37.557Z,95849.50
2023-02-24T11:51:08.405Z,95846.69
2023-02-24T11:53:42.929Z,95837.50
2023-02-24T11:56:13.577Z,95841.13
2023-02-24T11:58:45.230Z,95820.09
2023-02-24T12:01:16.076Z,95821.47
2023-02-24T12:03:51.811Z,95829.75
2023-02-24T12:06:22.530Z,95816.19
2023-02-24T12:08:53.899Z,95814.16
2023-02-24T12:11:28.117Z,95803.22
2023-02-24T12:14:03.636Z,95808.03
2023-02-24T12:16:34.303Z,95801.09
2023-02-24T12:19:06.457Z,95801.13
2023-02-24T12:21:37.157Z,95793.88
2023-02-24T12:24:08.831Z,95788.31
2023-02-24T12:26:43.585Z,95794.41
2023-02-24T12:29:27.835Z,95777.94
2023-02-24T12:32:02.889Z,95784.81
2023-02-24T12:34:39.987Z,95778.38
2023-02-24T12:37:21.065Z,95766.19
2023-02-24T12:39:56.398Z,95766.00
2023-02-24T12:42:29.982Z,95764.97
2023-02-24T12:45:02.544Z,95757.22
2023-02-24T12:47:38.430Z,95750.31
2023-02-24T12:50:18.861Z,95763.59
2023-02-24T12:52:54.815Z,95752.09
2023-02-24T12:55:27.912Z,95754.72
2023-02-24T12:58:03.016Z,95752.06
2023-02-24T13:00:38.451Z,95748.13
2023-02-24T13:03:13.220Z,95738.28
2023-02-24T13:05:44.889Z,95736.25
2023-02-24T13:08:19.794Z,95730.50
2023-02-24T13:10:52.483Z,95721.38
2023-02-24T13:13:25.469Z,95706.88
2023-02-24T13:15:54.618Z,95696.94
2023-02-24T13:18:26.333Z,95694.63
2023-02-24T13:21:04.439Z,95699.56
2023-02-24T13:23:32.644Z,95692.03
2023-02-24T13:26:01.662Z,95696.09
2023-02-24T13:28:33.157Z,95682.75
2023-02-24T13:31:02.370Z,95688.03
2023-02-24T13:33:33.511Z,95680.47
2023-02-24T13:36:21.506Z,95673.03
2023-02-24T13:38:50.525Z,95672.00
2023-02-24T13:41:40.566Z,95660.56
2023-02-24T13:44:27.873Z,95657.50
2023-02-24T13:47:11.668Z,95654.59
2023-02-24T13:49:44.636Z,95643.38
2023-02-24T13:52:20.410Z,95647.53
2023-02-24T13:54:59.237Z,95636.69
2023-02-24T13:57:57.941Z,95635.22
2023-02-24T14:00:30.311Z,95644.19
2023-02-24T14:02:58.805Z,95641.34
2023-02-24T14:05:28.260Z,95626.13
2023-02-24T14:07:56.573Z,95626.72
2023-02-24T14:10:26.246Z,95625.28
2023-02-24T14:13:04.034Z,95620.69
2023-02-24T14:15:32.337Z,95620.75
2023-02-24T14:18:01.832Z,95608.22
2023-02-24T14:20:32.701Z,95606.59
2023-02-24T14:23:01.173Z,95607.47
2023-02-24T14:25:31.975Z,95595.56
2023-02-24T14:28:01.533Z,95593.00
2023-02-24T14:30:34.221Z,95587.53
2023-02-24T14:33:02.125Z,95581.97
2023-02-24T14:35:34.013Z,95581.16
2023-02-24T14:38:02.400Z,95573.25
2023-02-24T14:40:30.464Z,95565.06
2023-02-24T14:42:58.280Z,95556.00
2023-02-24T14:45:28.911Z,95561.38
2023-02-24T14:47:57.466Z,95555.63
2023-02-24T14:50:27.609Z,95561.25
2023-02-24T14:52:57.454Z,95552.88
2023-02-24T14:55:27.243Z,95553.78
2023-02-24T14:57:57.327Z,95544.16
2023-02-24T15:00:28.914Z,95538.69
2023-02-24T15:03:04.617Z,95542.13
2023-02-24T15:05:32.469Z,95548.06
2023-02-24T15:08:02.496Z,95541.63
2023-02-24T15:10:31.810Z,95548.09
2023-02-24T15:13:01.396Z,95544.25
2023-02-24T15:15:35.700Z,95538.03
2023-02-24T15:18:06.492Z,95543.91
2023-02-24T15:20:36.089Z,95540.25
2023-02-24T15:23:04.436Z,95542.06
2023-02-24T15:25:43.014Z,95535.56
2023-02-24T15:28:24.374Z,95530.09
2023-02-24T15:31:01.929Z,95533.97
2023-02-24T15:33:34.123Z,95525.09
2023-02-24T15:36:01.921Z,95514.28
2023-02-24T15:38:32.048Z,95517.53
2023-02-24T15:41:02.196Z,95508.84
2023-02-24T15:43:34.739Z,95518.56
2023-02-24T15:46:14.704Z,95515.16
2023-02-24T15:48:44.229Z,95513.16
2023-02-24T15:51:21.363Z,95506.47
2023-02-24T15:53:49.405Z,95508.91
2023-02-24T15:56:17.852Z,95497.53
2023-02-24T15:58:45.467Z,95499.81
2023-02-24T16:01:14.591Z,95491.66
2023-02-24T16:03:42.368Z,95495.13
2023-02-24T16:06:15.866Z,95497.19
2023-02-24T16:08:45.005Z,95485.84
2023-02-24T16:11:12.814Z,95482.63
2023-02-24T16:13:40.506Z,95485.44
2023-02-24T16:16:09.038Z,95479.16
2023-02-24T16:18:38.014Z,95485.44
2023-02-24T16:21:05.859Z,95483.44
2023-02-24T16:23:40.650Z,95479.78
2023-02-24T16:26:10.951Z,95468.25
2023-02-24T16:28:38.560Z,95466.63
2023-02-24T16:31:07.534Z,95458.72
2023-02-24T16:33:51.924Z,95452.06
2023-02-24T16:36:21.804Z,95461.16
2023-02-24T16:38:51.056Z,95466.84
2023-02-24T16:41:18.932Z,95459.38
2023-02-24T16:43:46.492Z,95458.75
2023-02-24T16:46:15.768Z,95464.03
2023-02-24T16:48:45.811Z,95463.63
2023-02-24T16:51:13.568Z,95456.94
2023-02-24T16:53:42.940Z,95462.81
2023-02-24T16:56:11.992Z,95454.72
2023-02-24T16:58:39.694Z,95448.66
2023-02-24T17:01:07.382Z,95462.03
2023-02-24T17:03:41.729Z,95463.84
2023-02-24T17:06:09.414Z,95454.13
2023-02-24T17:08:37.185Z,95466.09
2023-02-24T17:11:06.415Z,95457.59
2023-02-24T17:13:33.938Z,95460.44
2023-02-24T17:16:01.532Z,95449.69
2023-02-24T17:18:29.088Z,95457.19
2023-02-24T17:20:56.649Z,95458.78
2023-02-24T17:23:24.568Z,95451.09
2023-02-24T17:25:54.035Z,95450.28
2023-02-24T17:28:23.145Z,95447.66
2023-02-24T17:30:50.831Z,95438.13
2023-02-24T17:33:18.448Z,95441.78
2023-02-24T17:35:46.930Z,95438.53
2023-02-24T17:38:15.001Z,95441.97
2023-02-24T17:40:42.636Z,95437.31
2023-02-24T17:43:10.386Z,95426.19
2023-02-24T17:45:42.974Z,95428.19
2023-02-24T17:48:11.135Z,95430.44
2023-02-24T17:50:39.143Z,95422.94
2023-02-24T17:53:06.677Z,95421.91
2023-02-24T17:55:34.261Z,95416.25
2023-02-24T17:58:01.887Z,95411.97
2023-02-24T18:00:29.487Z,95416.22
2023-02-24T18:02:58.535Z,95417.03
2023-02-24T18:05:26.406Z,95421.06
2023-02-24T18:07:54.409Z,95419.44
2023-02-24T18:10:21.947Z,95406.84
2023-02-24T18:12:49.714Z,95411.16
2023-02-24T18:15:17.266Z,95414.41
2023-02-24T18:17:44.826Z,95415.00
2023-02-24T18:20:14.509Z,95403.25
2023-02-24T18:22:42.050Z,95393.97
2023-02-24T18:25:10.342Z,95404.50
2023-02-24T18:27:37.962Z,95402.06
2023-02-24T18:30:06.957Z,95398.81
2023-02-24T18:32:35.262Z,95395.78
2023-02-24T18:35:03.630Z,95381.63
2023-02-24T18:37:32.551Z,95390.75
2023-02-24T18:40:00.188Z,95393.56
2023-02-24T18:42:27.759Z,95400.66
2023-02-24T18:44:55.369Z,95404.09
2023-02-24T18:47:22.936Z,95402.09
2023-02-24T18:49:50.529Z,95388.50
2023-02-24T18:52:18.172Z,95392.97
2023-02-24T18:54:48.450Z,95384.06
2023-02-24T18:57:16.074Z,95384.63
2023-02-24T18:59:43.847Z,95385.22
2023-02-24T19:02:11.631Z,95394.72
2023-02-24T19:04:39.221Z,95390.28
2023-02-24T19:07:07.609Z,95371.25
2023-02-24T19:09:35.280Z,95378.50
2023-02-24T19:12:04.340Z,95382.56
2023-02-24T19:14:32.207Z,95373.69
2023-02-24T19:17:01.176Z,95374.25
2023-02-24T19:19:28.765Z,95374.88
2023-02-24T19:21:56.352Z,95375.28
2023-02-24T19:24:23.952Z,95380.94
2023-02-24T19:26:53.586Z,95388.19
2023-02-24T19:29:22.547Z,95387.41
2023-02-24T19:31:53.967Z,95391.22
2023-02-24T19:34:22.588Z,95391.22
2023-02-24T19:36:50.153Z,95393.84
2023-02-24T19:39:18.353Z,95398.28
2023-02-24T19:41:48.540Z,95397.28
2023-02-24T19:44:17.054Z,95388.16
2023-02-24T19:46:45.979Z,95388.78
2023-02-24T19:49:13.542Z,95384.94
2023-02-24T19:51:41.104Z,95381.09
2023-02-24T19:54:08.685Z,95391.78
2023-02-24T19:56:37.473Z,95383.25
2023-02-24T19:59:06.713Z,95387.28
2023-02-24T20:01:34.930Z,95386.03
2023-02-24T20:04:04.773Z,95387.06
2023-02-24T20:06:35.547Z,95380.56
2023-02-24T20:09:05.621Z,95371.81
2023-02-24T20:11:35.616Z,95379.44
2023-02-24T20:14:03.153Z,95384.88
2023-02-24T20:16:32.718Z,95381.81
2023-02-24T20:19:00.273Z,95380.97
2023-02-24T20:21:29.398Z,95375.28
2023-02-24T20:23:59.864Z,95375.44
2023-02-24T20:26:28.161Z,95381.31
2023-02-24T20:28:56.132Z,95379.84
2023-02-24T20:31:24.140Z,95374.19
2023-02-24T20:33:51.999Z,95373.59
2023-02-24T20:36:23.029Z,95369.94
2023-02-24T20:38:52.576Z,95364.88
2023-02-24T20:41:21.930Z,95378.56
2023-02-24T20:43:49.756Z,95367.44
2023-02-24T20:46:19.759Z,95362.97
2023-02-24T20:48:47.508Z,95368.59
2023-02-24T20:51:15.390Z,95380.47
2023-02-24T20:53:56.702Z,95372.19
2023-02-24T20:56:27.124Z,95370.56
2023-02-24T20:58:59.806Z,95377.81
2023-02-24T21:01:27.923Z,95380.44
2023-02-24T21:03:55.604Z,95384.44
2023-02-24T21:06:23.547Z,95387.44
2023-02-24T21:08:53.120Z,95384.31
2023-02-24T21:11:21.487Z,95398.81
2023-02-24T21:13:51.616Z,95402.91
2023-02-24T21:16:21.105Z,95399.47
2023-02-24T21:18:50.405Z,95407.81
2023-02-24T21:21:19.494Z,95415.59
2023-02-24T21:23:47.190Z,95422.13
2023-02-24T21:26:14.893Z,95430.53
2023-02-24T21:28:42.491Z,95441.19
2023-02-24T21:31:12.999Z,95439.22
2023-02-24T21:33:40.953Z,95439.25
2023-02-24T21:36:11.293Z,95446.63
2023-02-24T21:38:38.918Z,95441.75
2023-02-24T21:41:08.367Z,95452.38
2023-02-24T21:43:37.784Z,95451.56
2023-02-24T21:46:07.026Z,95449.56
2023-02-24T21:48:36.992Z,95448.75
2023-02-24T21:51:06.562Z,95443.06
2023-02-24T21:53:35.582Z,95440.44
2023-02-24T21:56:05.584Z,95443.28
2023-02-24T21:58:33.533Z,95436.63
2023-02-24T22:01:01.673Z,95440.41
2023-02-24T22:03:29.239Z,95438.34
2023-02-24T22:05:58.358Z,95443.09
2023-02-24T22:08:25.963Z,95445.94
2023-02-24T22:11:00.368Z,95447.28
2023-02-24T22:13:28.429Z,95446.91
2023-02-24T22:15:58.222Z,95447.97
2023-02-24T22:18:25.914Z,95446.41
2023-02-24T22:20:53.458Z,95443.84
2023-02-24T22:23:22.365Z,95450.41
2023-02-24T22:25:49.874Z,95437.03
2023-02-24T22:28:17.624Z,95436.75
2023-02-24T22:30:45.158Z,95447.59
2023-02-24T22:33:12.911Z,95450.66
2023-02-24T22:35:40.461Z,95461.31
2023-02-24T22:38:08.074Z,95466.25
2023-02-24T22:40:37.154Z,95447.66
2023-02-24T22:43:06.030Z,95445.75
2023-02-24T22:45:34.109Z,95455.72
2023-02-24T22:48:01.747Z,95466.28
2023-02-24T22:50:29.288Z,95460.44
2023-02-24T22:52:56.820Z,95451.78
2023-02-24T22:55:25.205Z,95470.88
2023-02-24T22:57:54.059Z,95470.41
2023-02-24T23:00:23.267Z,95465.34
2023-02-24T23:02:50.841Z,95454.25
2023-02-24T23:05:18.623Z,95458.84
2023-02-24T23:07:48.425Z,95457.03
2023-02-24T23:10:15.979Z,95465.00
2023-02-24T23:12:43.837Z,95467.28
2023-02-24T23:15:13.837Z,95467.28
2023-02-24T23:17:42.226Z,95470.53
2023-02-24T23:20:12.828Z,95467.75
2023-02-24T23:22:40.762Z,95459.44
2023-02-24T23:25:09.654Z,95460.91
2023-02-24T23:27:38.617Z,95451.25
2023-02-24T23:30:08.840Z,95445.75
2023-02-24T23:32:37.937Z,95440.91
2023-02-24T23:35:06.150Z,95437.81
2023-02-24T23:37:33.829Z,95439.44
2023-02-24T23:40:01.357Z,95435.09
2023-02-24T23:42:28.966Z,95438.69
2023-02-24T23:44:56.596Z,95432.00
2023-02-24T23:47:24.350Z,95434.75
2023-02-24T23:49:53.244Z,95433.63
2023-02-24T23:52:20.809Z,95432.16
2023-02-24T23:54:49.864Z,95433.81
2023-02-24T23:57:17.580Z,95446.50
2023-02-24T23:59:45.462Z,95451.09
